DeKalb, IL (60115)

6:06 AM CST on December 11, 2016 (GMT -0600)
Maplewood | | Change Station
Active Advisory: Winter Storm Warning

Elev 902 ft 41.93 °N, 88.74 °W | Updated 8 minutes ago

Overcast
Overcast
24.8 °F
Feels Like 25 °F
N
0.0
Wind Variable Wind from ESE
Gusts 8.0 mph

Today
High -- | Low -- °F
--% Chance of Precip.
Yesterday
High -- | Low -- °F
Precip. -- in
Pressure 30.04 in
Visibility 7.0 miles
Clouds Scattered Clouds 4900 ft
Overcast 6000 ft
Windchill 25 °F
Dew Point 23 °F
Humidity 94%
Rainfall 0.00 in
Snow Depth Not available.
7:13 AM 4:23 PM
Waxing Gibbous, 91% visible
METAR KDKB 111155Z AUTO 13012KT 7SM SCT049 OVC060 M04/M05 A3004 RMK AO2 T10381050 11038 21051
Pressure 30.04 in
Visibility 7.0 miles
Clouds Scattered Clouds 4900 ft
Overcast 6000 ft
Windchill 25 °F
Dew Point 23 °F
Humidity 94%
Rainfall 0.00 in
Snow Depth Not available.
7:13 AM 4:23 PM
Waxing Gibbous, 91% visible
METAR KDKB 111155Z AUTO 13012KT 7SM SCT049 OVC060 M04/M05 A3004 RMK AO2 T10381050 11038 21051

10-Day Weather Forecast

Almanac

Astronomy

Dec. 11, 2016 Rise Set
Actual Time
Civil Twilight
Nautical Twilight
Astronomical Twilight
Moon
Length of Visible Light
Length of Day
Tomorrow will be .
, % of the Moon is Illuminated

Today's Extremes

State Highs State Lows

Community

WunderPhotos

Upload Photos

1,956,710 photos uploaded!

WunderBlog® & News

Nearby

Air Quality

  Air Quality AQ Index Pollutant
Not available.

Snow Depth

Station Depth Elevation

Earthquake Activity

City Distance Mag. Time & Date
Minimum magnitude displayed is 2.5.

Coastal Water Temperatures

Place Temperature

Stations

Nearby Weather Stations

Station Location Temp. Windchill Dew Point Humidity Wind Precip. Elev Updated Type
                   

Watches & Warnings

Winter Storm Warning
Issued: 3:46 AM CST Dec. 11, 2016 – National Weather Service

... Winter Storm Warning remains in effect until midnight CST
tonight...

* timing... light snow will persist through this evening. Periods
of moderate to heavy snow are possible at times early this
morning and again this afternoon.

* Snow accumulations... an additional 3 to 6 inches of snow is
expected today. This will result in a storm total of 5 to 9
inches.

* Visibilities... look for reduced visibilities during the
heavier snowfall... likely below a mile at times.

* Impacts... plan on difficult driving conditions.

Precautionary/preparedness actions...

A Winter Storm Warning for heavy snow means severe winter weather
conditions are expected or occurring. Significant amounts of
snow are forecast that will make travel dangerous. Only travel in
an emergency. If you must travel... keep an extra flashlight...
food... and water in your vehicle in case of an emergency.